createdAt,value
2018-04-28T00:01:04.493Z,13.50
2018-04-28T00:03:31.999Z,13.50
2018-04-28T00:05:59.490Z,13.40
2018-04-28T00:08:31.881Z,13.40
2018-04-28T00:11:00.113Z,13.30
2018-04-28T00:13:27.613Z,13.30
2018-04-28T00:15:59.377Z,13.20
2018-04-28T00:18:27.668Z,13.20
2018-04-28T00:20:55.178Z,13.10
2018-04-28T00:23:22.658Z,13.10
2018-04-28T00:25:53.759Z,13.00
2018-04-28T00:31:36.431Z,13.00
2018-04-28T00:34:11.385Z,12.90
2018-04-28T00:37:00.549Z,12.90
2018-04-28T00:39:28.132Z,12.90
2018-04-28T00:41:56.641Z,12.90
2018-04-28T00:44:26.865Z,12.90
2018-04-28T00:47:02.255Z,12.90
2018-04-28T00:49:31.353Z,12.80
2018-04-28T00:52:00.649Z,12.80
2018-04-28T00:54:42.597Z,12.90
2018-04-28T01:00:38.935Z,13.00
2018-04-28T01:03:06.421Z,13.00
2018-04-28T01:05:51.613Z,13.00
2018-04-28T01:08:24.761Z,13.00
2018-04-28T01:10:52.235Z,13.10
2018-04-28T01:13:20.005Z,13.10
2018-04-28T01:15:47.616Z,13.10
2018-04-28T01:18:24.851Z,13.10
2018-04-28T01:21:08.919Z,13.10
2018-04-28T01:23:44.069Z,13.20
2018-04-28T01:26:20.801Z,13.10
2018-04-28T01:28:48.301Z,13.10
2018-04-28T01:31:16.583Z,13.20
2018-04-28T01:33:53.675Z,13.20
2018-04-28T01:36:36.743Z,13.20
2018-04-28T01:39:15.827Z,13.20
2018-04-28T01:41:51.885Z,13.30
2018-04-28T01:44:34.281Z,13.30
2018-04-28T01:47:05.069Z,13.30
2018-04-28T01:49:32.556Z,13.30
2018-04-28T01:52:05.973Z,13.30
2018-04-28T01:54:53.972Z,13.30
2018-04-28T01:57:22.288Z,13.30
2018-04-28T02:00:02.101Z,13.30
2018-04-28T02:02:36.670Z,13.20
2018-04-28T02:05:09.437Z,13.20
2018-04-28T02:07:37.753Z,13.00
2018-04-28T02:10:05.480Z,13.00
2018-04-28T02:12:36.331Z,12.70
2018-04-28T02:18:07.901Z,12.50
2018-04-28T02:20:49.049Z,12.50
2018-04-28T02:23:20.346Z,12.50
2018-04-28T02:25:52.581Z,12.50
2018-04-28T02:28:29.832Z,12.30
2018-04-28T02:30:57.352Z,12.30
2018-04-28T02:33:26.611Z,12.20
2018-04-28T02:36:04.020Z,12.10
2018-04-28T02:38:35.224Z,12.10
2018-04-28T02:44:06.606Z,12.00
2018-04-28T02:46:36.064Z,11.80
2018-04-28T02:49:09.392Z,11.70
2018-04-28T02:54:56.179Z,11.60
2018-04-28T02:57:55.106Z,11.60
2018-04-28T03:00:25.174Z,11.60
2018-04-28T03:02:57.211Z,11.70
2018-04-28T03:05:34.136Z,11.70
2018-04-28T03:08:09.452Z,11.70
2018-04-28T03:10:58.494Z,11.70
2018-04-28T03:13:39.491Z,11.70
2018-04-28T03:16:09.304Z,11.60
2018-04-28T03:18:39.960Z,11.50
2018-04-28T03:21:08.456Z,11.50
2018-04-28T03:23:37.512Z,11.50
2018-04-28T03:26:14.280Z,11.50
2018-04-28T03:28:46.559Z,11.40
2018-04-28T03:31:20.569Z,11.40
2018-04-28T03:34:00.821Z,11.30
2018-04-28T03:36:29.089Z,11.30
2018-04-28T03:39:01.425Z,11.30
2018-04-28T03:41:29.752Z,11.30
2018-04-28T03:43:58.985Z,11.30
2018-04-28T03:46:27.213Z,11.20
2018-04-28T03:51:56.804Z,11.30
2018-04-28T03:54:26.053Z,11.30
2018-04-28T03:56:57.192Z,11.40
2018-04-28T03:59:37.208Z,11.50
2018-04-28T04:02:16.577Z,11.50
2018-04-28T04:04:49.564Z,11.60
2018-04-28T04:07:24.480Z,11.70
2018-04-28T04:10:03.828Z,11.70
2018-04-28T04:12:33.585Z,11.70
2018-04-28T04:18:05.358Z,11.70
2018-04-28T04:23:46.924Z,11.60
2018-04-28T04:26:35.127Z,11.60
2018-04-28T04:29:16.364Z,11.30
2018-04-28T04:32:19.141Z,10.90
2018-04-28T04:38:05.777Z,10.90
2018-04-28T04:43:42.049Z,10.80
2018-04-28T04:46:22.281Z,10.80
2018-04-28T04:52:30.021Z,10.90
2018-04-28T04:55:13.935Z,11.10
2018-04-28T04:58:04.059Z,11.00
2018-04-28T05:01:02.999Z,11.40
2018-04-28T05:03:42.596Z,11.40
2018-04-28T05:06:18.425Z,11.80
2018-04-28T05:08:52.872Z,11.80
2018-04-28T05:14:26.408Z,12.00
2018-04-28T05:16:57.748Z,12.10
2018-04-28T05:19:32.008Z,12.00
2018-04-28T05:22:11.402Z,12.00
2018-04-28T05:24:54.616Z,12.10
2018-04-28T05:27:29.624Z,12.40
2018-04-28T05:30:11.672Z,12.40
2018-04-28T05:32:51.201Z,12.60
2018-04-28T05:35:31.377Z,12.70
2018-04-28T05:38:31.265Z,12.60
2018-04-28T05:41:11.408Z,12.60
2018-04-28T05:43:48.151Z,12.50
2018-04-28T05:49:30.732Z,12.50
2018-04-28T05:51:59.867Z,12.50
2018-04-28T06:01:03.661Z,12.70
2018-04-28T06:06:44.460Z,12.70
2018-04-28T06:12:13.521Z,13.00
2018-04-28T06:15:02.864Z,13.10
2018-04-28T06:17:39.092Z,13.10
2018-04-28T06:20:15.343Z,13.20
2018-04-28T06:22:42.799Z,13.20
2018-04-28T06:25:10.281Z,13.30
2018-04-28T06:27:38.545Z,13.30
2018-04-28T06:30:06.033Z,13.20
2018-04-28T06:32:33.525Z,13.20
2018-04-28T06:35:01.025Z,13.20
2018-04-28T06:37:29.314Z,13.30
2018-04-28T06:39:57.557Z,13.30
2018-04-28T06:42:25.040Z,13.20
2018-04-28T06:44:53.357Z,13.20
2018-04-28T06:47:20.884Z,13.20
2018-04-28T06:49:49.162Z,13.10
2018-04-28T06:52:17.476Z,13.00
2018-04-28T06:54:45.096Z,13.00
2018-04-28T06:57:13.445Z,13.20
2018-04-28T06:59:40.955Z,13.20
2018-04-28T07:02:09.244Z,13.30
2018-04-28T07:04:36.749Z,13.40
2018-04-28T07:07:04.262Z,13.40
2018-04-28T07:09:31.774Z,13.40
2018-04-28T07:12:00.044Z,13.50
2018-04-28T07:14:27.560Z,13.50
2018-04-28T07:16:55.070Z,13.50
2018-04-28T07:19:23.362Z,13.50
2018-04-28T07:21:51.651Z,13.50
2018-04-28T07:24:19.222Z,13.40
2018-04-28T07:26:46.710Z,13.50
2018-04-28T07:29:14.222Z,13.50
2018-04-28T07:31:42.458Z,13.50
2018-04-28T07:34:11.052Z,13.50
2018-04-28T07:36:39.305Z,13.50
2018-04-28T07:39:06.898Z,13.40
2018-04-28T07:41:35.151Z,13.60
2018-04-28T07:44:02.652Z,13.60
2018-04-28T07:46:30.150Z,13.60
2018-04-28T07:48:57.639Z,13.60
2018-04-28T07:51:25.935Z,13.80
2018-04-28T07:53:54.298Z,13.80
2018-04-28T07:56:22.567Z,14.00
2018-04-28T07:58:50.886Z,14.20
2018-04-28T08:01:18.393Z,14.20
2018-04-28T08:03:45.964Z,14.30
2018-04-28T08:06:14.294Z,14.40
2018-04-28T08:08:41.829Z,14.30
2018-04-28T08:11:09.323Z,14.40
2018-04-28T08:13:36.800Z,14.30
2018-04-28T08:16:04.505Z,14.20
2018-04-28T08:18:32.103Z,14.30
2018-04-28T08:20:59.615Z,14.40
2018-04-28T08:23:27.867Z,14.50
2018-04-28T08:25:56.510Z,14.50
2018-04-28T08:28:24.041Z,14.50
2018-04-28T08:30:51.546Z,14.50
2018-04-28T08:33:20.356Z,14.70
2018-04-28T08:35:48.698Z,15.00
2018-04-28T08:38:16.224Z,15.00
2018-04-28T08:40:43.756Z,14.90
2018-04-28T08:43:11.996Z,15.10
2018-04-28T08:45:39.642Z,15.10
2018-04-28T08:48:07.044Z,15.10
2018-04-28T08:50:34.607Z,15.00
2018-04-28T08:53:03.191Z,15.00
2018-04-28T08:55:31.382Z,15.00
2018-04-28T08:57:59.754Z,15.00
2018-04-28T09:00:31.563Z,15.10
2018-04-28T09:02:59.102Z,15.10
2018-04-28T09:05:26.666Z,15.30
2018-04-28T09:07:54.185Z,15.50
2018-04-28T09:10:22.504Z,15.90
2018-04-28T09:12:50.009Z,15.90
2018-04-28T09:15:18.280Z,16.10
2018-04-28T09:17:46.901Z,16.10
2018-04-28T09:20:15.226Z,16.10
2018-04-28T09:22:42.723Z,16.10
2018-04-28T09:25:10.984Z,16.70
2018-04-28T09:27:39.251Z,16.90
2018-04-28T09:30:08.409Z,17.10
2018-04-28T09:32:36.025Z,17.10
2018-04-28T09:35:04.321Z,17.40
2018-04-28T09:37:31.821Z,17.40
2018-04-28T09:39:59.385Z,17.40
2018-04-28T09:42:27.013Z,17.50
2018-04-28T09:44:54.578Z,17.60
2018-04-28T09:47:22.385Z,17.50
2018-04-28T09:49:50.678Z,16.80
2018-04-28T09:52:18.965Z,16.80
2018-04-28T09:54:46.544Z,16.70
2018-04-28T09:57:14.824Z,16.70
2018-04-28T09:59:42.356Z,16.80
2018-04-28T10:02:16.563Z,16.70
2018-04-28T10:04:44.828Z,16.50
2018-04-28T10:07:13.107Z,16.40
2018-04-28T10:09:41.455Z,16.40
2018-04-28T10:12:08.942Z,16.40
2018-04-28T10:14:37.215Z,16.20
2018-04-28T10:17:05.487Z,16.40
2018-04-28T10:19:33.477Z,16.40
2018-04-28T10:22:02.135Z,16.80
2018-04-28T10:24:29.711Z,16.70
2018-04-28T10:26:58.068Z,16.60
2018-04-28T10:29:25.674Z,16.60
2018-04-28T10:31:53.173Z,16.40
2018-04-28T10:34:20.805Z,16.30
2018-04-28T10:36:48.393Z,16.40
2018-04-28T10:39:15.916Z,16.40
2018-04-28T10:41:43.499Z,16.40
2018-04-28T10:44:11.041Z,16.50
2018-04-28T10:46:38.551Z,16.70
2018-04-28T10:49:06.068Z,16.90
2018-04-28T10:51:33.597Z,17.10
2018-04-28T10:54:01.911Z,17.00
2018-04-28T10:56:29.442Z,17.00
2018-04-28T10:58:57.102Z,16.90
2018-04-28T11:01:24.751Z,16.90
2018-04-28T11:03:53.014Z,17.00
2018-04-28T11:06:22.320Z,17.10
2018-04-28T11:08:50.608Z,17.20
2018-04-28T11:11:18.862Z,17.40
2018-04-28T11:13:47.262Z,17.60
2018-04-28T11:16:15.506Z,17.70
2018-04-28T11:18:43.015Z,17.70
2018-04-28T11:21:10.492Z,17.60
2018-04-28T11:23:38.064Z,17.80
2018-04-28T11:26:06.267Z,18.20
2018-04-28T11:28:34.576Z,19.00
2018-04-28T11:31:02.056Z,19.00
2018-04-28T11:33:29.650Z,18.90
2018-04-28T11:35:57.306Z,18.50
2018-04-28T11:38:24.849Z,17.90
2018-04-28T11:40:52.437Z,17.50
2018-04-28T11:43:20.792Z,17.20
2018-04-28T11:45:48.292Z,17.20
2018-04-28T11:48:15.831Z,17.10
2018-04-28T11:50:44.253Z,17.40
2018-04-28T11:53:11.812Z,17.30
2018-04-28T11:55:39.244Z,17.60
2018-04-28T11:58:06.824Z,17.60
2018-04-28T12:00:34.406Z,17.70
2018-04-28T12:03:01.968Z,17.70
2018-04-28T12:05:29.755Z,17.80
2018-04-28T12:07:57.241Z,17.80
2018-04-28T12:10:24.746Z,17.60
2018-04-28T12:12:52.319Z,17.40
2018-04-28T12:15:19.947Z,17.20
2018-04-28T12:17:47.487Z,17.30
2018-04-28T12:20:15.001Z,17.60
2018-04-28T12:22:43.368Z,17.50
2018-04-28T12:25:10.991Z,17.40
2018-04-28T12:27:38.481Z,17.50
2018-04-28T12:30:06.053Z,17.40
2018-04-28T12:32:33.497Z,17.50
2018-04-28T12:35:02.222Z,17.70
2018-04-28T12:37:30.617Z,17.60
2018-04-28T12:39:58.919Z,17.60
2018-04-28T12:42:26.411Z,17.60
2018-04-28T12:44:53.904Z,17.60
2018-04-28T12:47:21.422Z,17.50
2018-04-28T12:49:49.007Z,17.40
2018-04-28T12:52:18.142Z,17.40
2018-04-28T12:54:45.663Z,17.40
2018-04-28T12:57:14.012Z,17.70
2018-04-28T12:59:41.585Z,17.70
2018-04-28T13:02:10.585Z,18.00
2018-04-28T13:04:38.971Z,17.90
2018-04-28T13:07:07.244Z,17.80
2018-04-28T13:09:35.528Z,17.70
2018-04-28T13:12:03.809Z,17.60
2018-04-28T13:14:31.352Z,17.60
2018-04-28T13:16:59.600Z,17.80
2018-04-28T13:19:27.180Z,17.80
2018-04-28T13:21:55.472Z,18.00
2018-04-28T13:24:24.068Z,18.00
2018-04-28T13:26:51.641Z,17.90
2018-04-28T13:29:19.996Z,18.20
2018-04-28T13:31:48.252Z,18.30
2018-04-28T13:34:16.524Z,18.40
2018-04-28T13:36:44.040Z,18.40
2018-04-28T13:39:11.550Z,18.60
2018-04-28T13:41:39.826Z,18.50
2018-04-28T13:44:08.115Z,18.60
2018-04-28T13:46:35.643Z,18.50
2018-04-28T13:49:03.430Z,18.50
2018-04-28T13:51:31.744Z,18.30
2018-04-28T13:53:59.216Z,18.30
2018-04-28T13:56:26.726Z,18.50
2018-04-28T13:58:55.000Z,18.50
2018-04-28T14:01:23.518Z,18.40
2018-04-28T14:03:51.759Z,18.40
2018-04-28T14:06:20.012Z,18.30
2018-04-28T14:08:47.516Z,18.30
2018-04-28T14:11:15.051Z,18.30
2018-04-28T14:13:43.646Z,18.10
2018-04-28T14:16:11.912Z,18.10
2018-04-28T14:18:40.317Z,18.30
2018-04-28T14:21:08.622Z,18.40
2018-04-28T14:23:36.092Z,18.40
2018-04-28T14:26:03.636Z,18.50
2018-04-28T14:28:31.142Z,18.60
2018-04-28T14:30:59.430Z,19.30
2018-04-28T14:33:26.927Z,19.20
2018-04-28T14:35:54.430Z,19.20
2018-04-28T14:38:22.742Z,18.90
2018-04-28T14:40:50.658Z,18.90
2018-04-28T14:43:19.744Z,19.00
2018-04-28T14:45:47.381Z,19.00
2018-04-28T14:48:14.887Z,19.20
2018-04-28T14:50:43.159Z,19.60
2018-04-28T14:53:11.422Z,19.60
2018-04-28T14:55:40.831Z,19.60
2018-04-28T14:58:09.122Z,19.80
2018-04-28T15:00:37.396Z,20.00
2018-04-28T15:03:05.660Z,19.80
2018-04-28T15:05:33.932Z,19.60
2018-04-28T15:08:02.949Z,19.50
2018-04-28T15:10:31.436Z,19.30
2018-04-28T15:12:59.370Z,19.20
2018-04-28T15:15:27.658Z,19.20
2018-04-28T15:17:56.042Z,19.30
2018-04-28T15:20:24.308Z,19.40
2018-04-28T15:22:52.662Z,19.40
2018-04-28T15:25:20.958Z,19.40
2018-04-28T15:27:48.558Z,19.50
2018-04-28T15:30:16.073Z,19.50
2018-04-28T15:32:44.354Z,19.60
2018-04-28T15:35:12.608Z,19.50
2018-04-28T15:37:40.118Z,19.40
2018-04-28T15:40:07.612Z,19.30
2018-04-28T15:42:35.150Z,19.30
2018-04-28T15:45:02.677Z,19.30
2018-04-28T15:47:30.974Z,19.30
2018-04-28T15:49:58.537Z,19.30
2018-04-28T15:52:25.942Z,19.20
2018-04-28T15:54:55.117Z,19.00
2018-04-28T15:57:23.431Z,19.00
2018-04-28T15:59:51.786Z,19.00
2018-04-28T16:02:19.411Z,19.00
2018-04-28T16:04:46.975Z,19.00
2018-04-28T16:07:14.461Z,19.00
2018-04-28T16:09:41.959Z,19.10
2018-04-28T16:12:09.646Z,19.00
2018-04-28T16:14:37.229Z,19.00
2018-04-28T16:17:05.441Z,18.90
2018-04-28T16:19:33.872Z,18.80
2018-04-28T16:22:01.386Z,18.80
2018-04-28T16:24:29.653Z,18.90
2018-04-28T16:26:58.013Z,18.90
2018-04-28T16:29:25.535Z,18.90
2018-04-28T16:31:53.765Z,19.00
2018-04-28T16:34:22.026Z,19.00
2018-04-28T16:36:49.518Z,19.00
2018-04-28T16:39:17.098Z,19.00
2018-04-28T16:41:44.592Z,19.00
2018-04-28T16:44:12.177Z,18.90
2018-04-28T16:46:39.608Z,18.90
2018-04-28T16:49:07.933Z,18.90
2018-04-28T16:51:36.184Z,18.90
2018-04-28T16:54:04.454Z,18.90
2018-04-28T16:56:33.447Z,18.50
2018-04-28T16:59:01.014Z,18.60
2018-04-28T17:01:29.183Z,18.30
2018-04-28T17:03:57.472Z,18.00
2018-04-28T17:06:25.149Z,18.00
2018-04-28T17:08:52.691Z,17.90
2018-04-28T17:11:21.535Z,17.50
2018-04-28T17:13:49.038Z,17.50
2018-04-28T17:16:17.304Z,17.20
2018-04-28T17:18:45.642Z,17.20
2018-04-28T17:21:13.133Z,17.20
2018-04-28T17:23:40.904Z,17.10
2018-04-28T17:26:09.172Z,17.00
2018-04-28T17:28:37.427Z,17.10
2018-04-28T17:31:04.961Z,17.10
2018-04-28T17:33:33.214Z,17.30
2018-04-28T17:36:00.759Z,17.50
2018-04-28T17:38:29.019Z,17.30
2018-04-28T17:40:57.313Z,17.10
2018-04-28T17:43:25.601Z,17.00
2018-04-28T17:45:53.613Z,17.00
2018-04-28T17:48:21.838Z,17.00
2018-04-28T17:50:50.097Z,16.70
2018-04-28T17:53:18.387Z,16.70
2018-04-28T17:55:46.678Z,16.70
2018-04-28T17:58:14.168Z,16.70
2018-04-28T18:00:41.713Z,16.60
2018-04-28T18:03:09.221Z,16.50
2018-04-28T18:05:37.527Z,16.40
2018-04-28T18:08:05.847Z,16.40
2018-04-28T18:10:33.374Z,16.40
2018-04-28T18:13:00.855Z,16.40
2018-04-28T18:15:28.345Z,16.40
2018-04-28T18:17:55.860Z,16.30
2018-04-28T18:20:23.354Z,16.30
2018-04-28T18:22:50.871Z,16.20
2018-04-28T18:25:18.365Z,16.20
2018-04-28T18:27:46.166Z,16.20
2018-04-28T18:30:13.721Z,16.10
2018-04-28T18:32:42.057Z,16.10
2018-04-28T18:35:09.577Z,16.10
2018-04-28T18:37:47.111Z,16.10
2018-04-28T18:40:14.865Z,16.00
2018-04-28T18:42:43.361Z,16.00
2018-04-28T18:45:10.964Z,16.00
2018-04-28T18:47:38.586Z,16.00
2018-04-28T18:50:06.113Z,16.00
2018-04-28T18:52:33.613Z,16.00
2018-04-28T18:55:01.112Z,16.00
2018-04-28T18:57:28.597Z,16.00
2018-04-28T18:59:56.088Z,15.90
2018-04-28T19:02:24.372Z,15.90
2018-04-28T19:04:52.744Z,15.90
2018-04-28T19:07:21.015Z,15.90
2018-04-28T19:09:48.528Z,15.80
2018-04-28T19:12:16.360Z,15.80
2018-04-28T19:14:43.928Z,15.80
2018-04-28T19:17:11.463Z,15.80
2018-04-28T19:19:39.724Z,15.70
2018-04-28T19:22:07.254Z,15.70
2018-04-28T19:24:34.900Z,15.70
2018-04-28T19:27:02.416Z,15.70
2018-04-28T19:29:31.006Z,15.70
2018-04-28T19:31:59.286Z,15.70
2018-04-28T19:34:27.569Z,15.60
2018-04-28T19:36:55.424Z,15.60
2018-04-28T19:39:23.701Z,15.60
2018-04-28T19:41:51.969Z,15.60
2018-04-28T19:44:20.316Z,15.50
2018-04-28T19:46:47.916Z,15.50
2018-04-28T19:49:16.199Z,15.60
2018-04-28T19:51:44.890Z,15.50
2018-04-28T19:54:13.173Z,15.50
2018-04-28T19:56:41.550Z,15.50
2018-04-28T19:59:09.070Z,15.50
2018-04-28T20:01:36.678Z,15.40
2018-04-28T20:04:04.263Z,15.30
2018-04-28T20:06:31.752Z,15.30
2018-04-28T20:09:00.035Z,15.20
2018-04-28T20:11:27.598Z,15.20
2018-04-28T20:13:55.868Z,15.10
2018-04-28T20:16:24.241Z,15.10
2018-04-28T20:18:52.840Z,15.10
2018-04-28T20:21:21.114Z,15.10
2018-04-28T20:24:01.432Z,15.10
2018-04-28T20:26:28.929Z,15.10
2018-04-28T20:28:57.898Z,15.70
2018-04-28T20:31:25.380Z,15.70
2018-04-28T20:33:53.757Z,15.70
2018-04-28T20:36:22.089Z,15.40
2018-04-28T20:38:49.680Z,15.40
2018-04-28T20:41:17.354Z,15.20
2018-04-28T20:43:45.627Z,15.00
2018-04-28T20:46:13.900Z,14.90
2018-04-28T20:48:42.190Z,14.80
2018-04-28T20:51:09.751Z,14.80
2018-04-28T20:53:38.015Z,14.80
2018-04-28T20:56:07.046Z,14.70
2018-04-28T20:58:34.541Z,14.70
2018-04-28T21:01:03.545Z,14.70
2018-04-28T21:03:31.056Z,14.70
2018-04-28T21:05:58.697Z,14.70
2018-04-28T21:08:27.263Z,14.60
2018-04-28T21:10:55.579Z,14.60
2018-04-28T21:13:23.126Z,14.60
2018-04-28T21:15:50.645Z,14.60
2018-04-28T21:18:18.137Z,14.60
2018-04-28T21:20:45.658Z,14.70
2018-04-28T21:23:13.136Z,14.60
2018-04-28T21:25:40.628Z,14.60
2018-04-28T21:28:08.163Z,14.60
2018-04-28T21:30:35.748Z,14.60
2018-04-28T21:33:03.267Z,14.60
2018-04-28T21:35:31.655Z,14.60
2018-04-28T21:37:59.963Z,14.60
2018-04-28T21:40:27.482Z,14.60
2018-04-28T21:42:56.033Z,14.60
2018-04-28T21:45:23.611Z,14.60
2018-04-28T21:47:51.122Z,14.60
2018-04-28T21:50:18.621Z,14.60
2018-04-28T21:52:46.161Z,14.50
2018-04-28T21:55:13.749Z,14.50
2018-04-28T21:57:42.741Z,14.40
2018-04-28T22:00:10.347Z,14.40
2018-04-28T22:02:37.867Z,14.40
2018-04-28T22:05:07.455Z,14.30
2018-04-28T22:07:34.993Z,14.30
2018-04-28T22:10:02.578Z,14.20
2018-04-28T22:12:30.425Z,14.20
2018-04-28T22:14:58.026Z,14.10
2018-04-28T22:17:25.633Z,14.10
2018-04-28T22:19:53.631Z,14.00
2018-04-28T22:22:21.342Z,14.00
2018-04-28T22:24:48.857Z,13.90
2018-04-28T22:27:16.355Z,13.90
2018-04-28T22:29:44.084Z,13.80
2018-04-28T22:32:11.598Z,13.80
2018-04-28T22:34:51.250Z,13.80
2018-04-28T22:37:18.783Z,13.80
2018-04-28T22:39:46.342Z,13.70
2018-04-28T22:42:13.971Z,13.70
2018-04-28T22:44:42.270Z,13.60
2018-04-28T22:47:09.801Z,13.70
2018-04-28T22:49:38.154Z,13.60
2018-04-28T22:52:05.674Z,13.60
2018-04-28T22:54:33.184Z,13.50
2018-04-28T22:57:01.453Z,13.30
2018-04-28T22:59:29.762Z,13.20
2018-04-28T23:01:57.298Z,13.20
2018-04-28T23:04:25.022Z,13.10
2018-04-28T23:06:53.443Z,13.00
2018-04-28T23:09:23.340Z,12.90
2018-04-28T23:11:51.242Z,12.90
2018-04-28T23:14:18.725Z,12.90
2018-04-28T23:16:46.289Z,12.90
2018-04-28T23:19:13.823Z,12.90
2018-04-28T23:21:43.605Z,12.90
2018-04-28T23:24:13.869Z,12.80
2018-04-28T23:26:41.514Z,12.80
2018-04-28T23:29:09.061Z,12.80
2018-04-28T23:31:37.410Z,12.80
2018-04-28T23:34:04.980Z,12.80
2018-04-28T23:36:32.467Z,12.70
2018-04-28T23:39:00.013Z,12.70
2018-04-28T23:41:28.288Z,12.70
2018-04-28T23:43:56.599Z,12.60
2018-04-28T23:46:24.127Z,12.70
2018-04-28T23:48:52.397Z,12.70
2018-04-28T23:51:20.679Z,12.70
2018-04-28T23:53:48.178Z,12.70
2018-04-28T23:56:15.696Z,12.70
2018-04-28T23:58:43.181Z,12.60
